Donaldson, Indiana
Current Conditions -  °F | °C
As of 12:55 PM on Friday 19 Dec 2014 (Local Time) from KOXI Reporting Station
Overcast Overcast  
Wind Chill: 24°   Ceiling: 1900
Heat Index: 31°   Visibility: 10mi
Dew Point: 24°   Wind: 8mph
Humidity: 73%   Direction: 290°WNW
Pressure: 30.26"   Gusts: NA
Location:  41.36°N, 86.44°W
Report Text: KOXI 191755Z AUTO 29007KT 10SM OVC019 00/M05 A3026 RMK AO1 T10031047 10273 21130
Loading
Personal Weather Stations






























Interactive Weather Map New forecast layout! Learn more

10-Day Weather Forecast

Advertisements
Track Severe Weather on mobile